NCAR-RAP Real-Time Weather Data

Output produced by METARs form (12 May 2021  11:55 UTC)
found at http://weather.rap.ucar.edu/surface/
 
KABQ 121152Z 09019G30KT 10SM FEW020 FEW045 08/03 A3027 RMK AO2 PK WND 08032/1054 SLP192 MTN TOPS OBSC NE-SE T00830033 10106 20083 51017
KABQ 121052Z 09023G32KT 10SM FEW025 08/03 A3026 RMK AO2 PK WND 09034/1041 SLP187 BLDU ALQDS T00830028
KABQ 120952Z 10021G36KT 9SM CLR 09/03 A3023 RMK AO2 PK WND 09039/0858 SLP178 BLDU ALQDS T00890028
KABQ 120852Z 09024G34KT 9SM CLR 09/03 A3021 RMK AO2 PK WND 09039/0801 SLP172 BLDU ALQDS T00940033 51026
KABQ 120752Z 08030G39KT 9SM FEW120 09/03 A3020 RMK AO2 PK WND 09043/0723 SLP169 BLDU ALQDS T00940033
KABQ 120652Z 10025G40KT 8SM FEW120 FEW150 SCT180 10/04 A3016 RMK AO2 PK WND 08057/0605 SLP161 BLDU ALQDS T01000044 402610100
KABQ 120552Z 09035G48KT 9SM SCT120 BKN150 11/05 A3012 RMK AO2 PK WND 09048/0543 SLP144 T01060050 10244 20106 50020
KABQ 120452Z 10027G39KT 10SM BKN120 BKN150 13/06 A3013 RMK AO2 PK WND 08045/0433 SLP147 T01330056
KABQ 120352Z 10028G40KT 10SM BKN120 BKN180 16/06 A3008 RMK AO2 PK WND 08042/0335 WSHFT 0308 SLP129 T01560056
KABQ 120328Z 09027G40KT 10SM BKN120 BKN180 17/06 A3007 RMK AO2 PK WND 09040/0322 WSHFT 0308 T01670056
KABQ 120252Z 35014G23KT 10SM FEW090 BKN130 BKN190 22/M09 A3005 RMK AO2 WSHFT 0219 SLP110 T02221089 53021
KABQ 120239Z 36012G20KT 10SM FEW090 BKN130 BKN190 22/M09 A3004 RMK AO2 WSHFT 0219 T02221089
KABQ 120152Z 02009KT 10SM BKN130 BKN190 23/M09 A3002 RMK AO2 SLP101 T02281089
KABQ 120052Z 03012G18KT 10SM SCT130 SCT190 23/M10 A2999 RMK AO2 SLP092 VIRGA T02331100
KABQ 112352Z 19011KT 10SM SCT120 SCT250 24/M09 A2998 RMK AO2 SLP085 VIRGA T02441089 10261 20200 55015
KABQ 112252Z VRB04KT 10SM SCT120 26/M10 A2997 RMK AO2 SLP078 T02561100